KLM607 EHAM-EDDF
Flight info
| Callsign | KLM607 |
|---|---|
| Flight time | 0h 50m |
| Altitude | 35000 |
| Route | EDUPO Z739 MISGO DCT DIXAT DIXAT1A |
| Aircraft | A359/H-SDE2E3GHIJ3J4J5LM1ORWXY/LB1D1 |
Departure
| Time | 2026-05-06 17:56 |
|---|---|
| Airport | Amsterdam Airport Schiphol (EHAM) |
Arrival
| Time | 2026-05-06 18:46 |
|---|---|
| Airport | Frankfurt Main Airport (EDDF) |
| Time | Latitude | Longitude | Altitude | Speed | Heading |
|---|---|---|---|---|---|
| 2026-05-06 17:20 | 52.31215 | 4.76540 | 6 ft | 0 kts | 124° |
| 2026-05-06 17:40 | 52.31221 | 4.76523 | 4 ft | 3 kts | 124° |
| 2026-05-06 17:40 | 52.31232 | 4.76499 | 4 ft | 3 kts | 124° |
| 2026-05-06 17:41 | 52.31243 | 4.76472 | 6 ft | 3 kts | 109° |
| 2026-05-06 17:41 | 52.31246 | 4.76440 | 7 ft | 3 kts | 68° |
| 2026-05-06 17:41 | 52.31236 | 4.76414 | 6 ft | 2 kts | 30° |
| 2026-05-06 17:41 | 52.31234 | 4.76412 | 6 ft | 0 kts | 26° |
| 2026-05-06 17:43 | 52.31237 | 4.76414 | 6 ft | 2 kts | 25° |
| 2026-05-06 17:43 | 52.31258 | 4.76437 | 5 ft | 5 kts | 36° |
| 2026-05-06 17:43 | 52.31295 | 4.76474 | 4 ft | 6 kts | 31° |
| 2026-05-06 17:43 | 52.31324 | 4.76503 | 4 ft | 0 kts | 31° |
| 2026-05-06 17:45 | 52.31325 | 4.76504 | 4 ft | 0 kts | 32° |
| 2026-05-06 17:45 | 52.31357 | 4.76537 | 4 ft | 19 kts | 31° |
| 2026-05-06 17:45 | 52.31477 | 4.76663 | 4 ft | 20 kts | 20° |
| 2026-05-06 17:46 | 52.31552 | 4.76566 | 4 ft | 15 kts | 268° |
| 2026-05-06 17:46 | 52.31546 | 4.76399 | 4 ft | 14 kts | 267° |
| 2026-05-06 17:46 | 52.31541 | 4.76239 | 4 ft | 14 kts | 267° |
| 2026-05-06 17:46 | 52.31536 | 4.76083 | 4 ft | 13 kts | 268° |
| 2026-05-06 17:47 | 52.31531 | 4.75961 | 4 ft | 9 kts | 269° |
| 2026-05-06 17:47 | 52.31527 | 4.75855 | 4 ft | 9 kts | 269° |
| 2026-05-06 17:47 | 52.31525 | 4.75750 | 3 ft | 9 kts | 267° |
| 2026-05-06 17:47 | 52.31522 | 4.75645 | 3 ft | 9 kts | 264° |
| 2026-05-06 17:48 | 52.31517 | 4.75537 | 3 ft | 10 kts | 267° |
| 2026-05-06 17:48 | 52.31514 | 4.75430 | 3 ft | 9 kts | 267° |
| 2026-05-06 17:48 | 52.31509 | 4.75324 | 3 ft | 9 kts | 265° |
| 2026-05-06 17:48 | 52.31504 | 4.75203 | 3 ft | 11 kts | 266° |
| 2026-05-06 17:49 | 52.31500 | 4.75076 | 3 ft | 12 kts | 268° |
| 2026-05-06 17:49 | 52.31495 | 4.74934 | 4 ft | 13 kts | 266° |
| 2026-05-06 17:49 | 52.31489 | 4.74787 | 4 ft | 13 kts | 266° |
| 2026-05-06 17:49 | 52.31484 | 4.74643 | 4 ft | 13 kts | 262° |
| 2026-05-06 17:50 | 52.31478 | 4.74505 | 4 ft | 12 kts | 268° |
| 2026-05-06 17:50 | 52.31475 | 4.74366 | 4 ft | 12 kts | 268° |
| 2026-05-06 17:50 | 52.31462 | 4.74227 | 4 ft | 12 kts | 248° |
| 2026-05-06 17:50 | 52.31401 | 4.74145 | 4 ft | 11 kts | 201° |
| 2026-05-06 17:51 | 52.31323 | 4.74129 | 4 ft | 11 kts | 185° |
| 2026-05-06 17:51 | 52.31243 | 4.74119 | 4 ft | 12 kts | 184° |
| 2026-05-06 17:51 | 52.31161 | 4.74113 | 3 ft | 12 kts | 181° |
| 2026-05-06 17:51 | 52.31077 | 4.74109 | 3 ft | 12 kts | 181° |
| 2026-05-06 17:52 | 52.30994 | 4.74104 | 3 ft | 12 kts | 184° |
| 2026-05-06 17:52 | 52.30905 | 4.74093 | 3 ft | 18 kts | 183° |
| 2026-05-06 17:52 | 52.30747 | 4.74075 | 3 ft | 23 kts | 183° |
| 2026-05-06 17:52 | 52.30594 | 4.74064 | 4 ft | 18 kts | 182° |
| 2026-05-06 17:53 | 52.30468 | 4.74055 | 4 ft | 18 kts | 185° |
| 2026-05-06 17:53 | 52.30356 | 4.74040 | 4 ft | 16 kts | 191° |
| 2026-05-06 17:53 | 52.30257 | 4.73960 | 4 ft | 16 kts | 217° |
| 2026-05-06 17:53 | 52.30191 | 4.73816 | 3 ft | 16 kts | 265° |
| 2026-05-06 17:54 | 52.30268 | 4.73745 | -1 ft | 15 kts | 358° |
| 2026-05-06 17:54 | 52.30291 | 4.73745 | -1 ft | 0 kts | 0° |
| 2026-05-06 17:55 | 52.30293 | 4.73745 | -1 ft | 4 kts | 0° |
| 2026-05-06 17:55 | 52.30530 | 4.73762 | 1 ft | 68 kts | 4° |
| 2026-05-06 17:55 | 52.31217 | 4.73829 | 2 ft | 129 kts | 3° |
| 2026-05-06 17:55 | 52.32301 | 4.73929 | 27 ft | 180 kts | 2° |
| 2026-05-06 17:56 | 52.33500 | 4.73965 | 912 ft | 164 kts | 0° |
| 2026-05-06 17:56 | 52.34632 | 4.74221 | 1453 ft | 171 kts | 24° |
| 2026-05-06 17:56 | 52.35767 | 4.75115 | 1878 ft | 190 kts | 26° |
| 2026-05-06 17:56 | 52.37006 | 4.76072 | 2490 ft | 204 kts | 25° |
| 2026-05-06 17:57 | 52.38239 | 4.77350 | 2705 ft | 217 kts | 41° |
| 2026-05-06 17:57 | 52.39347 | 4.79137 | 2929 ft | 230 kts | 45° |
| 2026-05-06 17:57 | 52.40467 | 4.81093 | 3236 ft | 240 kts | 48° |
| 2026-05-06 17:57 | 52.41562 | 4.83168 | 3704 ft | 242 kts | 54° |
| 2026-05-06 17:58 | 52.42289 | 4.85651 | 4155 ft | 245 kts | 76° |
| 2026-05-06 17:58 | 52.42450 | 4.88461 | 4549 ft | 252 kts | 88° |
| 2026-05-06 17:58 | 52.42443 | 4.91346 | 4911 ft | 254 kts | 88° |
| 2026-05-06 17:58 | 52.42430 | 4.94231 | 4991 ft | 252 kts | 88° |
| 2026-05-06 17:59 | 52.42266 | 4.97092 | 5002 ft | 255 kts | 101° |
| 2026-05-06 17:59 | 52.41481 | 4.99707 | 4999 ft | 261 kts | 128° |
| 2026-05-06 17:59 | 52.40102 | 5.01692 | 4999 ft | 267 kts | 142° |
| 2026-05-06 17:59 | 52.38575 | 5.03432 | 4997 ft | 268 kts | 143° |
| 2026-05-06 18:00 | 52.37035 | 5.05166 | 4993 ft | 269 kts | 142° |
| 2026-05-06 18:00 | 52.35520 | 5.06888 | 5032 ft | 269 kts | 141° |
| 2026-05-06 18:00 | 52.33993 | 5.08664 | 5355 ft | 270 kts | 140° |
| 2026-05-06 18:00 | 52.32632 | 5.10742 | 5907 ft | 267 kts | 130° |
| 2026-05-06 18:01 | 52.31386 | 5.12984 | 6473 ft | 267 kts | 129° |
| 2026-05-06 18:01 | 52.30145 | 5.15255 | 6920 ft | 270 kts | 129° |
| 2026-05-06 18:01 | 52.28883 | 5.17564 | 7338 ft | 275 kts | 130° |
| 2026-05-06 18:01 | 52.27596 | 5.19908 | 7813 ft | 279 kts | 129° |
| 2026-05-06 18:02 | 52.26290 | 5.22281 | 8287 ft | 283 kts | 131° |
| 2026-05-06 18:02 | 52.24975 | 5.24675 | 8787 ft | 285 kts | 130° |
| 2026-05-06 18:02 | 52.23737 | 5.27232 | 9293 ft | 289 kts | 124° |
| 2026-05-06 18:02 | 52.22562 | 5.29923 | 9715 ft | 294 kts | 124° |
| 2026-05-06 18:03 | 52.21380 | 5.32660 | 10140 ft | 299 kts | 124° |
| 2026-05-06 18:03 | 52.20157 | 5.35492 | 10373 ft | 312 kts | 124° |
| 2026-05-06 18:03 | 52.18879 | 5.38440 | 10590 ft | 324 kts | 124° |
| 2026-05-06 18:03 | 52.17551 | 5.41494 | 10821 ft | 337 kts | 124° |
| 2026-05-06 18:04 | 52.16174 | 5.44658 | 11087 ft | 348 kts | 125° |
| 2026-05-06 18:04 | 52.14747 | 5.47928 | 11344 ft | 359 kts | 125° |
| 2026-05-06 18:04 | 52.13277 | 5.51292 | 11561 ft | 370 kts | 125° |
| 2026-05-06 18:04 | 52.11760 | 5.54759 | 11790 ft | 381 kts | 125° |
| 2026-05-06 18:05 | 52.10201 | 5.58317 | 12029 ft | 391 kts | 125° |
| 2026-05-06 18:05 | 52.08608 | 5.61951 | 12411 ft | 397 kts | 125° |
| 2026-05-06 18:05 | 52.06993 | 5.65625 | 12800 ft | 401 kts | 126° |
| 2026-05-06 18:05 | 52.05272 | 5.69197 | 12907 ft | 402 kts | 130° |
| 2026-05-06 18:06 | 52.03444 | 5.72648 | 12913 ft | 404 kts | 131° |
| 2026-05-06 18:06 | 52.01597 | 5.76082 | 12905 ft | 404 kts | 131° |
| 2026-05-06 18:06 | 51.99746 | 5.79521 | 12906 ft | 404 kts | 131° |
| 2026-05-06 18:06 | 51.97899 | 5.82950 | 12906 ft | 404 kts | 131° |
| 2026-05-06 18:07 | 51.96052 | 5.86392 | 12907 ft | 404 kts | 131° |
| 2026-05-06 18:07 | 51.94206 | 5.89837 | 12910 ft | 405 kts | 130° |
| 2026-05-06 18:07 | 51.92359 | 5.93282 | 12908 ft | 405 kts | 130° |
| 2026-05-06 18:07 | 51.90511 | 5.96726 | 12909 ft | 405 kts | 131° |
| 2026-05-06 18:08 | 51.88661 | 6.00169 | 12909 ft | 406 kts | 130° |
| 2026-05-06 18:08 | 51.86805 | 6.03616 | 12909 ft | 406 kts | 130° |
| 2026-05-06 18:08 | 51.84975 | 6.07012 | 12908 ft | 406 kts | 130° |
| 2026-05-06 18:08 | 51.83092 | 6.10500 | 12906 ft | 407 kts | 131° |
| 2026-05-06 18:09 | 51.81223 | 6.13933 | 12905 ft | 406 kts | 131° |
| 2026-05-06 18:09 | 51.79385 | 6.17295 | 12907 ft | 406 kts | 131° |
| 2026-05-06 18:09 | 51.77507 | 6.20724 | 12907 ft | 406 kts | 131° |
| 2026-05-06 18:09 | 51.75639 | 6.24136 | 12907 ft | 405 kts | 131° |
| 2026-05-06 18:10 | 51.73771 | 6.27544 | 12908 ft | 406 kts | 131° |
| 2026-05-06 18:10 | 51.71874 | 6.30998 | 13079 ft | 408 kts | 131° |
| 2026-05-06 18:10 | 51.70009 | 6.34390 | 13594 ft | 410 kts | 131° |
| 2026-05-06 18:10 | 51.68096 | 6.37866 | 14040 ft | 412 kts | 131° |
| 2026-05-06 18:11 | 51.66195 | 6.41316 | 14655 ft | 411 kts | 131° |
| 2026-05-06 18:11 | 51.64939 | 6.43593 | 15174 ft | 409 kts | 132° |
| 2026-05-06 18:11 | 51.62459 | 6.48094 | 16582 ft | 391 kts | 132° |
| 2026-05-06 18:11 | 51.60693 | 6.51297 | 17723 ft | 375 kts | 133° |
| 2026-05-06 18:12 | 51.58981 | 6.54394 | 18439 ft | 369 kts | 133° |
| 2026-05-06 18:12 | 51.57264 | 6.57488 | 18794 ft | 373 kts | 133° |
| 2026-05-06 18:12 | 51.55506 | 6.60648 | 18888 ft | 385 kts | 133° |
| 2026-05-06 18:12 | 51.53688 | 6.63911 | 18891 ft | 399 kts | 133° |
| 2026-05-06 18:13 | 51.51803 | 6.67292 | 18887 ft | 413 kts | 133° |
| 2026-05-06 18:13 | 51.49882 | 6.70736 | 18884 ft | 426 kts | 133° |
| 2026-05-06 18:13 | 51.47850 | 6.74377 | 18872 ft | 436 kts | 133° |
| 2026-05-06 18:13 | 51.45818 | 6.78018 | 18870 ft | 439 kts | 133° |
| 2026-05-06 18:14 | 51.43788 | 6.81651 | 18875 ft | 439 kts | 133° |
| 2026-05-06 18:14 | 51.41752 | 6.85292 | 18877 ft | 439 kts | 133° |
| 2026-05-06 18:14 | 51.39715 | 6.88936 | 18877 ft | 439 kts | 132° |
| 2026-05-06 18:14 | 51.37749 | 6.92681 | 18875 ft | 439 kts | 130° |
| 2026-05-06 18:15 | 51.35850 | 6.96521 | 18867 ft | 439 kts | 129° |
| 2026-05-06 18:15 | 51.33983 | 7.00378 | 18872 ft | 439 kts | 128° |
| 2026-05-06 18:15 | 51.32112 | 7.04241 | 18881 ft | 439 kts | 129° |
| 2026-05-06 18:15 | 51.30233 | 7.08086 | 18899 ft | 440 kts | 129° |
| 2026-05-06 18:16 | 51.28333 | 7.11933 | 19209 ft | 441 kts | 129° |
| 2026-05-06 18:16 | 51.26421 | 7.15772 | 19629 ft | 443 kts | 129° |
| 2026-05-06 18:16 | 51.24493 | 7.19620 | 20015 ft | 445 kts | 129° |
| 2026-05-06 18:16 | 51.22553 | 7.23476 | 20422 ft | 447 kts | 129° |
| 2026-05-06 18:17 | 51.20605 | 7.27347 | 20846 ft | 448 kts | 129° |
| 2026-05-06 18:17 | 51.19310 | 7.29919 | 21119 ft | 449 kts | 129° |
| 2026-05-06 18:17 | 51.17352 | 7.33814 | 21501 ft | 452 kts | 129° |
| 2026-05-06 18:17 | 51.15383 | 7.37729 | 21905 ft | 454 kts | 130° |
| 2026-05-06 18:18 | 51.13321 | 7.41557 | 22249 ft | 456 kts | 136° |
| 2026-05-06 18:18 | 51.10905 | 7.44805 | 22640 ft | 455 kts | 147° |
| 2026-05-06 18:18 | 51.08144 | 7.47236 | 23079 ft | 455 kts | 156° |
| 2026-05-06 18:18 | 51.05223 | 7.49206 | 23460 ft | 456 kts | 160° |
| 2026-05-06 18:19 | 51.02240 | 7.50914 | 23734 ft | 459 kts | 162° |
| 2026-05-06 18:19 | 50.99195 | 7.52520 | 23848 ft | 460 kts | 163° |
| 2026-05-06 18:19 | 50.96154 | 7.54091 | 23858 ft | 459 kts | 163° |
| 2026-05-06 18:19 | 50.93116 | 7.55673 | 23846 ft | 459 kts | 163° |
| 2026-05-06 18:20 | 50.90089 | 7.57278 | 23848 ft | 459 kts | 163° |
| 2026-05-06 18:20 | 50.87061 | 7.58907 | 23847 ft | 458 kts | 162° |
| 2026-05-06 18:20 | 50.84045 | 7.60544 | 23843 ft | 458 kts | 162° |
| 2026-05-06 18:20 | 50.81031 | 7.62189 | 23840 ft | 458 kts | 162° |
| 2026-05-06 18:21 | 50.78022 | 7.63833 | 23814 ft | 457 kts | 162° |
| 2026-05-06 18:21 | 50.75035 | 7.65465 | 23480 ft | 450 kts | 162° |
| 2026-05-06 18:21 | 50.72087 | 7.67073 | 22944 ft | 447 kts | 162° |
| 2026-05-06 18:21 | 50.69145 | 7.68672 | 22096 ft | 450 kts | 162° |
| 2026-05-06 18:22 | 50.66170 | 7.70286 | 21175 ft | 449 kts | 162° |
| 2026-05-06 18:22 | 50.63233 | 7.71879 | 20117 ft | 445 kts | 163° |
| 2026-05-06 18:22 | 50.60318 | 7.73458 | 19094 ft | 441 kts | 163° |
| 2026-05-06 18:22 | 50.57436 | 7.75017 | 18113 ft | 436 kts | 163° |
| 2026-05-06 18:23 | 50.54586 | 7.76555 | 17036 ft | 431 kts | 163° |
| 2026-05-06 18:23 | 50.51768 | 7.78073 | 16002 ft | 425 kts | 163° |
| 2026-05-06 18:23 | 50.48987 | 7.79570 | 15014 ft | 419 kts | 163° |
| 2026-05-06 18:23 | 50.46251 | 7.81040 | 14047 ft | 414 kts | 163° |
| 2026-05-06 18:24 | 50.43601 | 7.82720 | 12992 ft | 410 kts | 153° |
| 2026-05-06 18:24 | 50.41252 | 7.85230 | 11947 ft | 407 kts | 146° |
| 2026-05-06 18:24 | 50.39015 | 7.87907 | 10968 ft | 401 kts | 143° |
| 2026-05-06 18:24 | 50.36885 | 7.90606 | 10305 ft | 387 kts | 143° |
| 2026-05-06 18:25 | 50.34840 | 7.93198 | 9934 ft | 367 kts | 143° |
| 2026-05-06 18:25 | 50.32910 | 7.95625 | 9814 ft | 340 kts | 144° |
| 2026-05-06 18:25 | 50.31153 | 7.97821 | 9813 ft | 312 kts | 144° |
| 2026-05-06 18:25 | 50.29517 | 7.99856 | 9821 ft | 294 kts | 144° |
| 2026-05-06 18:26 | 50.27914 | 8.01836 | 9837 ft | 293 kts | 144° |
| 2026-05-06 18:26 | 50.26370 | 8.03903 | 9823 ft | 294 kts | 136° |
| 2026-05-06 18:26 | 50.25048 | 8.06344 | 9835 ft | 295 kts | 130° |
| 2026-05-06 18:26 | 50.23799 | 8.08885 | 9834 ft | 295 kts | 130° |
| 2026-05-06 18:27 | 50.22556 | 8.11433 | 9816 ft | 295 kts | 130° |
| 2026-05-06 18:27 | 50.21307 | 8.13983 | 9819 ft | 295 kts | 130° |
| 2026-05-06 18:27 | 50.20058 | 8.16525 | 9815 ft | 295 kts | 130° |
| 2026-05-06 18:27 | 50.18805 | 8.19068 | 9833 ft | 296 kts | 130° |
| 2026-05-06 18:28 | 50.17552 | 8.21604 | 9814 ft | 295 kts | 130° |
| 2026-05-06 18:28 | 50.16295 | 8.24144 | 9835 ft | 295 kts | 130° |
| 2026-05-06 18:28 | 50.15043 | 8.26673 | 9807 ft | 295 kts | 130° |
| 2026-05-06 18:28 | 50.13785 | 8.29210 | 9809 ft | 295 kts | 130° |
| 2026-05-06 18:29 | 50.12537 | 8.31727 | 9826 ft | 294 kts | 130° |
| 2026-05-06 18:29 | 50.11299 | 8.34279 | 9821 ft | 295 kts | 127° |
| 2026-05-06 18:29 | 50.10422 | 8.37176 | 9824 ft | 299 kts | 104° |
| 2026-05-06 18:29 | 50.10409 | 8.40397 | 9827 ft | 300 kts | 76° |
| 2026-05-06 18:30 | 50.11052 | 8.43497 | 9823 ft | 303 kts | 69° |
| 2026-05-06 18:30 | 50.11812 | 8.46561 | 9830 ft | 304 kts | 69° |
| 2026-05-06 18:30 | 50.12572 | 8.49634 | 9827 ft | 304 kts | 69° |
| 2026-05-06 18:30 | 50.13324 | 8.52723 | 9828 ft | 304 kts | 69° |
| 2026-05-06 18:31 | 50.14070 | 8.55811 | 9831 ft | 304 kts | 70° |
| 2026-05-06 18:31 | 50.14811 | 8.58896 | 9813 ft | 304 kts | 70° |
| 2026-05-06 18:31 | 50.15548 | 8.61987 | 9788 ft | 302 kts | 70° |
| 2026-05-06 18:31 | 50.16273 | 8.65036 | 9437 ft | 299 kts | 70° |
| 2026-05-06 18:32 | 50.16997 | 8.68085 | 8953 ft | 300 kts | 70° |
| 2026-05-06 18:32 | 50.17717 | 8.71129 | 8535 ft | 299 kts | 70° |
| 2026-05-06 18:32 | 50.18434 | 8.74170 | 8124 ft | 298 kts | 70° |
| 2026-05-06 18:32 | 50.19145 | 8.77187 | 7736 ft | 296 kts | 70° |
| 2026-05-06 18:33 | 50.19856 | 8.80185 | 7357 ft | 294 kts | 70° |
| 2026-05-06 18:33 | 50.20558 | 8.83169 | 6995 ft | 292 kts | 70° |
| 2026-05-06 18:33 | 50.21249 | 8.86121 | 6827 ft | 289 kts | 70° |
| 2026-05-06 18:33 | 50.21943 | 8.89078 | 6814 ft | 290 kts | 70° |
| 2026-05-06 18:34 | 50.22637 | 8.92038 | 6812 ft | 291 kts | 70° |
| 2026-05-06 18:34 | 50.23331 | 8.95009 | 6807 ft | 291 kts | 70° |
| 2026-05-06 18:34 | 50.24024 | 8.97970 | 6805 ft | 291 kts | 70° |
| 2026-05-06 18:34 | 50.24720 | 9.00934 | 6807 ft | 291 kts | 70° |
| 2026-05-06 18:35 | 50.25411 | 9.03904 | 6803 ft | 291 kts | 70° |
| 2026-05-06 18:35 | 50.26101 | 9.06872 | 6804 ft | 291 kts | 70° |
| 2026-05-06 18:35 | 50.26795 | 9.09844 | 6804 ft | 291 kts | 70° |
| 2026-05-06 18:35 | 50.27485 | 9.12816 | 6551 ft | 291 kts | 70° |
| 2026-05-06 18:36 | 50.28170 | 9.15780 | 6210 ft | 289 kts | 70° |
| 2026-05-06 18:36 | 50.28851 | 9.18720 | 5846 ft | 287 kts | 70° |
| 2026-05-06 18:36 | 50.29522 | 9.21660 | 5520 ft | 283 kts | 72° |
| 2026-05-06 18:36 | 50.29785 | 9.24648 | 5095 ft | 280 kts | 96° |
| 2026-05-06 18:37 | 50.29200 | 9.27521 | 4601 ft | 278 kts | 124° |
| 2026-05-06 18:37 | 50.27869 | 9.29627 | 4180 ft | 271 kts | 152° |
| 2026-05-06 18:37 | 50.26126 | 9.30466 | 4014 ft | 260 kts | 181° |
| 2026-05-06 18:37 | 50.24327 | 9.30314 | 3985 ft | 259 kts | 196° |
| 2026-05-06 18:38 | 50.22679 | 9.29256 | 4000 ft | 256 kts | 211° |
| 2026-05-06 18:38 | 50.21172 | 9.27783 | 3995 ft | 256 kts | 220° |
| 2026-05-06 18:38 | 50.19965 | 9.25775 | 3994 ft | 253 kts | 239° |
| 2026-05-06 18:38 | 50.19200 | 9.23315 | 4000 ft | 252 kts | 249° |
| 2026-05-06 18:39 | 50.18572 | 9.20751 | 3991 ft | 253 kts | 250° |
| 2026-05-06 18:39 | 50.18021 | 9.18142 | 3999 ft | 253 kts | 260° |
| 2026-05-06 18:39 | 50.17632 | 9.15463 | 3998 ft | 254 kts | 251° |
| 2026-05-06 18:40 | 50.16331 | 9.10352 | 4001 ft | 254 kts | 249° |
| 2026-05-06 18:40 | 50.15702 | 9.07784 | 4001 ft | 254 kts | 250° |
| 2026-05-06 18:40 | 50.15082 | 9.05196 | 4019 ft | 253 kts | 250° |
| 2026-05-06 18:40 | 50.14500 | 9.02681 | 4010 ft | 240 kts | 250° |
| 2026-05-06 18:41 | 50.13945 | 9.00277 | 4016 ft | 234 kts | 250° |
| 2026-05-06 18:41 | 50.13381 | 8.97896 | 4028 ft | 234 kts | 250° |
| 2026-05-06 18:41 | 50.12810 | 8.95516 | 4043 ft | 235 kts | 250° |
| 2026-05-06 18:41 | 50.12238 | 8.93129 | 4054 ft | 235 kts | 250° |
| 2026-05-06 18:42 | 50.11668 | 8.90737 | 4065 ft | 236 kts | 250° |
| 2026-05-06 18:42 | 50.11097 | 8.88341 | 4076 ft | 236 kts | 250° |
| 2026-05-06 18:42 | 50.10527 | 8.85951 | 4067 ft | 236 kts | 250° |
| 2026-05-06 18:42 | 50.09956 | 8.83559 | 3853 ft | 236 kts | 250° |
| 2026-05-06 18:43 | 50.09386 | 8.81172 | 3500 ft | 234 kts | 250° |
| 2026-05-06 18:43 | 50.08822 | 8.78806 | 3170 ft | 233 kts | 251° |
| 2026-05-06 18:43 | 50.08259 | 8.76444 | 2832 ft | 233 kts | 251° |
| 2026-05-06 18:43 | 50.07692 | 8.74076 | 2518 ft | 233 kts | 251° |
| 2026-05-06 18:44 | 50.07120 | 8.71707 | 2193 ft | 234 kts | 250° |
| 2026-05-06 18:44 | 50.06550 | 8.69336 | 1875 ft | 233 kts | 251° |
| 2026-05-06 18:44 | 50.05999 | 8.67018 | 1554 ft | 223 kts | 251° |
| 2026-05-06 18:44 | 50.05480 | 8.64836 | 1252 ft | 210 kts | 250° |
| 2026-05-06 18:45 | 50.04977 | 8.62727 | 963 ft | 200 kts | 253° |
| 2026-05-06 18:45 | 50.04519 | 8.60798 | 728 ft | 182 kts | 253° |
| 2026-05-06 18:45 | 50.04091 | 8.59013 | 470 ft | 172 kts | 252° |
| 2026-05-06 18:45 | 50.03816 | 8.57867 | 384 ft | 170 kts | 252° |
| 2026-05-06 18:46 | 50.03323 | 8.55794 | 361 ft | 122 kts | 249° |
| 2026-05-06 18:46 | 50.03109 | 8.54891 | 356 ft | 58 kts | 248° |
| 2026-05-06 18:46 | 50.03018 | 8.54506 | 347 ft | 29 kts | 258° |
| 2026-05-06 18:46 | 50.03012 | 8.54209 | 335 ft | 26 kts | 274° |
| 2026-05-06 18:47 | 50.03036 | 8.53981 | 349 ft | 14 kts | 282° |
| 2026-05-06 18:47 | 50.03073 | 8.53902 | 360 ft | 4 kts | 329° |
| 2026-05-06 18:47 | 50.03076 | 8.53899 | 359 ft | 0 kts | 332° |
| 2026-05-06 18:49 | 50.03077 | 8.53899 | 359 ft | 1 kts | 332° |
| 2026-05-06 18:49 | 50.03124 | 8.53939 | 360 ft | 18 kts | 57° |
| 2026-05-06 18:50 | 50.03190 | 8.54198 | 364 ft | 26 kts | 69° |
| 2026-05-06 18:50 | 50.03251 | 8.54433 | 366 ft | 20 kts | 75° |
| 2026-05-06 18:50 | 50.03289 | 8.54614 | 362 ft | 15 kts | 69° |
| 2026-05-06 18:50 | 50.03321 | 8.54748 | 366 ft | 11 kts | 68° |
| 2026-05-06 18:51 | 50.03338 | 8.54830 | 365 ft | 5 kts | 78° |
| 2026-05-06 18:51 | 50.03342 | 8.54866 | 362 ft | 0 kts | 74° |
| 2026-05-06 18:51 | 50.03342 | 8.54867 | 362 ft | 0 kts | 73° |
| 2026-05-06 18:51 | 50.03346 | 8.54887 | 363 ft | 15 kts | 72° |
| 2026-05-06 18:52 | 50.03446 | 8.55280 | 363 ft | 46 kts | 67° |
| 2026-05-06 18:52 | 50.03496 | 8.55487 | 364 ft | 13 kts | 71° |
| 2026-05-06 18:52 | 50.03509 | 8.55582 | 364 ft | 5 kts | 69° |
| 2026-05-06 18:52 | 50.03514 | 8.55597 | 367 ft | 0 kts | 63° |
| 2026-05-06 18:53 | 50.03515 | 8.55599 | 358 ft | 1 kts | 63° |
| 2026-05-06 18:53 | 50.03534 | 8.55660 | 368 ft | 15 kts | 68° |
| 2026-05-06 18:53 | 50.03581 | 8.55855 | 367 ft | 17 kts | 62° |
| 2026-05-06 18:53 | 50.03615 | 8.55993 | 369 ft | 11 kts | 71° |
| 2026-05-06 18:54 | 50.03638 | 8.56085 | 369 ft | 8 kts | 69° |
| 2026-05-06 18:54 | 50.03651 | 8.56153 | 367 ft | 5 kts | 77° |
| 2026-05-06 18:54 | 50.03662 | 8.56201 | 364 ft | 13 kts | 66° |
| 2026-05-06 18:54 | 50.03742 | 8.56523 | 366 ft | 39 kts | 67° |
| 2026-05-06 18:55 | 50.03835 | 8.56894 | 367 ft | 34 kts | 72° |
| 2026-05-06 18:55 | 50.03906 | 8.57207 | 365 ft | 28 kts | 68° |
| 2026-05-06 18:55 | 50.03970 | 8.57450 | 368 ft | 22 kts | 69° |
| 2026-05-06 18:55 | 50.04015 | 8.57657 | 366 ft | 19 kts | 69° |
| 2026-05-06 18:56 | 50.04054 | 8.57830 | 366 ft | 15 kts | 71° |
| 2026-05-06 18:56 | 50.04092 | 8.57970 | 362 ft | 13 kts | 72° |
| 2026-05-06 18:56 | 50.04115 | 8.58076 | 368 ft | 8 kts | 68° |
| 2026-05-06 18:56 | 50.04151 | 8.58138 | 363 ft | 10 kts | 35° |
| 2026-05-06 18:57 | 50.04236 | 8.58199 | 350 ft | 10 kts | 17° |
| 2026-05-06 18:57 | 50.04247 | 8.58203 | 351 ft | 0 kts | 13° |
| 2026-05-06 18:58 | 50.04250 | 8.58204 | 341 ft | 0 kts | 13° |